sensor_id;sensor_type;location;lat;lon;timestamp;P1;durP1;ratioP1;P2;durP2;ratioP2
47737;SDS011;33502;47.182;27.506;2022-09-16T00:00:41;6.22;;;3.05;;
47737;SDS011;33502;47.182;27.506;2022-09-16T00:03:08;6.50;;;2.60;;
47737;SDS011;33502;47.182;27.506;2022-09-16T00:05:39;6.78;;;2.72;;
47737;SDS011;33502;47.182;27.506;2022-09-16T00:08:09;8.88;;;2.97;;
47737;SDS011;33502;47.182;27.506;2022-09-16T00:10:35;4.13;;;2.60;;
47737;SDS011;33502;47.182;27.506;2022-09-16T00:13:02;5.45;;;3.40;;
47737;SDS011;33502;47.182;27.506;2022-09-16T00:15:29;4.00;;;2.80;;
47737;SDS011;33502;47.182;27.506;2022-09-16T00:17:54;5.15;;;3.53;;
47737;SDS011;33502;47.182;27.506;2022-09-16T00:20:20;4.22;;;2.70;;
47737;SDS011;33502;47.182;27.506;2022-09-16T00:22:46;5.40;;;2.80;;
47737;SDS011;33502;47.182;27.506;2022-09-16T00:25:12;8.75;;;3.10;;
47737;SDS011;33502;47.182;27.506;2022-09-16T00:27:38;9.45;;;3.15;;
47737;SDS011;33502;47.182;27.506;2022-09-16T00:30:04;8.38;;;3.25;;
47737;SDS011;33502;47.182;27.506;2022-09-16T00:32:30;6.65;;;3.05;;
47737;SDS011;33502;47.182;27.506;2022-09-16T00:34:55;3.70;;;2.75;;
47737;SDS011;33502;47.182;27.506;2022-09-16T00:37:21;6.35;;;3.00;;
47737;SDS011;33502;47.182;27.506;2022-09-16T00:39:47;6.35;;;3.30;;
47737;SDS011;33502;47.182;27.506;2022-09-16T00:42:14;7.38;;;2.58;;
47737;SDS011;33502;47.182;27.506;2022-09-16T00:47:25;8.40;;;3.80;;
47737;SDS011;33502;47.182;27.506;2022-09-16T00:49:57;6.88;;;3.30;;
47737;SDS011;33502;47.182;27.506;2022-09-16T00:52:27;7.50;;;3.20;;
47737;SDS011;33502;47.182;27.506;2022-09-16T00:54:55;7.28;;;3.17;;
47737;SDS011;33502;47.182;27.506;2022-09-16T00:57:21;6.72;;;3.03;;
47737;SDS011;33502;47.182;27.506;2022-09-16T00:59:49;5.78;;;3.17;;
47737;SDS011;33502;47.182;27.506;2022-09-16T01:02:19;8.75;;;3.10;;
47737;SDS011;33502;47.182;27.506;2022-09-16T01:05:04;5.28;;;2.90;;
47737;SDS011;33502;47.182;27.506;2022-09-16T01:07:37;7.25;;;3.13;;
47737;SDS011;33502;47.182;27.506;2022-09-16T01:10:06;9.00;;;3.30;;
47737;SDS011;33502;47.182;27.506;2022-09-16T01:12:32;7.47;;;3.17;;
47737;SDS011;33502;47.182;27.506;2022-09-16T01:15:00;7.80;;;2.67;;
47737;SDS011;33502;47.182;27.506;2022-09-16T01:34:30;7.22;;;3.33;;
47737;SDS011;33502;47.182;27.506;2022-09-16T01:37:08;7.72;;;3.40;;
47737;SDS011;33502;47.182;27.506;2022-09-16T01:44:56;7.90;;;3.67;;
47737;SDS011;33502;47.182;27.506;2022-09-16T01:55:17;6.13;;;3.28;;
47737;SDS011;33502;47.182;27.506;2022-09-16T01:57:54;6.30;;;3.33;;
47737;SDS011;33502;47.182;27.506;2022-09-16T02:00:24;8.05;;;3.30;;
47737;SDS011;33502;47.182;27.506;2022-09-16T02:02:55;8.52;;;3.22;;
47737;SDS011;33502;47.182;27.506;2022-09-16T02:05:27;5.00;;;2.92;;
47737;SDS011;33502;47.182;27.506;2022-09-16T02:08:11;6.03;;;3.05;;
47737;SDS011;33502;47.182;27.506;2022-09-16T02:10:45;7.00;;;3.30;;
47737;SDS011;33502;47.182;27.506;2022-09-16T02:13:37;3.78;;;2.85;;
47737;SDS011;33502;47.182;27.506;2022-09-16T02:18:38;5.75;;;2.83;;
47737;SDS011;33502;47.182;27.506;2022-09-16T02:21:08;7.85;;;3.35;;
47737;SDS011;33502;47.182;27.506;2022-09-16T02:23:39;7.53;;;2.65;;
47737;SDS011;33502;47.182;27.506;2022-09-16T02:28:37;4.28;;;2.75;;
47737;SDS011;33502;47.182;27.506;2022-09-16T02:31:07;8.27;;;3.00;;
47737;SDS011;33502;47.182;27.506;2022-09-16T02:33:39;8.02;;;3.50;;
47737;SDS011;33502;47.182;27.506;2022-09-16T02:36:12;5.38;;;2.80;;
47737;SDS011;33502;47.182;27.506;2022-09-16T02:38:46;6.45;;;3.50;;
47737;SDS011;33502;47.182;27.506;2022-09-16T02:41:15;8.07;;;3.00;;
47737;SDS011;33502;47.182;27.506;2022-09-16T02:43:41;5.72;;;3.30;;
47737;SDS011;33502;47.182;27.506;2022-09-16T02:49:03;6.20;;;2.97;;
47737;SDS011;33502;47.182;27.506;2022-09-16T02:52:00;7.97;;;3.35;;
47737;SDS011;33502;47.182;27.506;2022-09-16T02:57:15;7.93;;;3.67;;
47737;SDS011;33502;47.182;27.506;2022-09-16T02:59:41;4.38;;;2.90;;
47737;SDS011;33502;47.182;27.506;2022-09-16T03:02:07;8.30;;;3.20;;
47737;SDS011;33502;47.182;27.506;2022-09-16T03:04:33;4.55;;;3.40;;
47737;SDS011;33502;47.182;27.506;2022-09-16T03:06:59;5.30;;;2.95;;
47737;SDS011;33502;47.182;27.506;2022-09-16T03:09:27;6.75;;;3.13;;
47737;SDS011;33502;47.182;27.506;2022-09-16T03:28:25;11.02;;;2.92;;
47737;SDS011;33502;47.182;27.506;2022-09-16T03:31:06;5.78;;;3.20;;
47737;SDS011;33502;47.182;27.506;2022-09-16T03:33:37;5.72;;;3.28;;
47737;SDS011;33502;47.182;27.506;2022-09-16T03:36:08;5.90;;;3.35;;
47737;SDS011;33502;47.182;27.506;2022-09-16T03:38:38;11.05;;;4.00;;
47737;SDS011;33502;47.182;27.506;2022-09-16T03:41:06;6.05;;;3.60;;
47737;SDS011;33502;47.182;27.506;2022-09-16T03:43:34;5.30;;;3.13;;
47737;SDS011;33502;47.182;27.506;2022-09-16T03:46:00;6.30;;;3.17;;
47737;SDS011;33502;47.182;27.506;2022-09-16T03:48:26;6.97;;;3.75;;
47737;SDS011;33502;47.182;27.506;2022-09-16T03:50:52;7.97;;;3.35;;
47737;SDS011;33502;47.182;27.506;2022-09-16T03:53:18;6.13;;;2.80;;
47737;SDS011;33502;47.182;27.506;2022-09-16T03:55:43;5.40;;;3.17;;
47737;SDS011;33502;47.182;27.506;2022-09-16T03:58:09;5.95;;;3.10;;
47737;SDS011;33502;47.182;27.506;2022-09-16T04:00:35;7.65;;;3.25;;
47737;SDS011;33502;47.182;27.506;2022-09-16T04:03:01;7.57;;;3.05;;
47737;SDS011;33502;47.182;27.506;2022-09-16T04:05:27;8.65;;;2.90;;
47737;SDS011;33502;47.182;27.506;2022-09-16T04:07:53;11.25;;;3.40;;
47737;SDS011;33502;47.182;27.506;2022-09-16T04:10:18;6.28;;;3.35;;
47737;SDS011;33502;47.182;27.506;2022-09-16T04:12:44;6.63;;;3.30;;
47737;SDS011;33502;47.182;27.506;2022-09-16T04:15:10;6.38;;;3.72;;
47737;SDS011;33502;47.182;27.506;2022-09-16T04:17:36;8.40;;;3.35;;
47737;SDS011;33502;47.182;27.506;2022-09-16T04:20:02;7.70;;;3.60;;
47737;SDS011;33502;47.182;27.506;2022-09-16T04:22:30;8.85;;;3.65;;
47737;SDS011;33502;47.182;27.506;2022-09-16T04:24:56;6.53;;;3.47;;
47737;SDS011;33502;47.182;27.506;2022-09-16T04:27:22;7.70;;;3.45;;
47737;SDS011;33502;47.182;27.506;2022-09-16T04:29:48;6.50;;;3.08;;
47737;SDS011;33502;47.182;27.506;2022-09-16T04:32:14;6.00;;;3.40;;
47737;SDS011;33502;47.182;27.506;2022-09-16T04:34:40;6.47;;;3.72;;
47737;SDS011;33502;47.182;27.506;2022-09-16T04:37:06;11.73;;;3.90;;
47737;SDS011;33502;47.182;27.506;2022-09-16T04:39:32;6.88;;;3.53;;
47737;SDS011;33502;47.182;27.506;2022-09-16T04:41:57;7.38;;;3.97;;
47737;SDS011;33502;47.182;27.506;2022-09-16T04:44:25;7.90;;;3.45;;
47737;SDS011;33502;47.182;27.506;2022-09-16T04:46:51;5.43;;;3.17;;
47737;SDS011;33502;47.182;27.506;2022-09-16T04:49:17;14.13;;;4.35;;
47737;SDS011;33502;47.182;27.506;2022-09-16T04:51:43;9.73;;;4.22;;
47737;SDS011;33502;47.182;27.506;2022-09-16T04:54:09;8.45;;;4.50;;
47737;SDS011;33502;47.182;27.506;2022-09-16T04:56:36;5.45;;;4.10;;
47737;SDS011;33502;47.182;27.506;2022-09-16T04:59:02;10.35;;;5.55;;
47737;SDS011;33502;47.182;27.506;2022-09-16T05:01:31;15.68;;;8.82;;
47737;SDS011;33502;47.182;27.506;2022-09-16T05:03:59;12.98;;;7.70;;
47737;SDS011;33502;47.182;27.506;2022-09-16T05:06:29;9.10;;;6.28;;
47737;SDS011;33502;47.182;27.506;2022-09-16T05:08:59;10.23;;;5.85;;
47737;SDS011;33502;47.182;27.506;2022-09-16T05:11:26;8.27;;;5.22;;
47737;SDS011;33502;47.182;27.506;2022-09-16T05:13:54;8.85;;;5.18;;
47737;SDS011;33502;47.182;27.506;2022-09-16T05:16:23;9.75;;;6.05;;
47737;SDS011;33502;47.182;27.506;2022-09-16T05:18:50;10.10;;;6.25;;
47737;SDS011;33502;47.182;27.506;2022-09-16T05:21:20;9.32;;;6.80;;
47737;SDS011;33502;47.182;27.506;2022-09-16T05:23:47;10.68;;;6.20;;
47737;SDS011;33502;47.182;27.506;2022-09-16T05:26:18;12.35;;;8.25;;
47737;SDS011;33502;47.182;27.506;2022-09-16T05:28:46;12.40;;;7.35;;
47737;SDS011;33502;47.182;27.506;2022-09-16T05:31:13;11.73;;;8.02;;
47737;SDS011;33502;47.182;27.506;2022-09-16T05:33:42;19.42;;;8.48;;
47737;SDS011;33502;47.182;27.506;2022-09-16T05:36:10;12.57;;;6.97;;
47737;SDS011;33502;47.182;27.506;2022-09-16T05:38:38;12.85;;;7.95;;
47737;SDS011;33502;47.182;27.506;2022-09-16T05:41:04;10.05;;;7.95;;
47737;SDS011;33502;47.182;27.506;2022-09-16T05:43:30;15.27;;;8.80;;
47737;SDS011;33502;47.182;27.506;2022-09-16T05:45:57;14.82;;;7.82;;
47737;SDS011;33502;47.182;27.506;2022-09-16T05:48:24;15.55;;;8.30;;
47737;SDS011;33502;47.182;27.506;2022-09-16T05:50:57;14.05;;;7.47;;
47737;SDS011;33502;47.182;27.506;2022-09-16T05:53:28;13.13;;;9.18;;
47737;SDS011;33502;47.182;27.506;2022-09-16T05:58:28;14.90;;;9.75;;
47737;SDS011;33502;47.182;27.506;2022-09-16T06:00:59;14.27;;;9.02;;
47737;SDS011;33502;47.182;27.506;2022-09-16T06:03:30;12.00;;;9.63;;
47737;SDS011;33502;47.182;27.506;2022-09-16T06:06:12;19.23;;;11.32;;
47737;SDS011;33502;47.182;27.506;2022-09-16T06:08:42;9.18;;;7.30;;
47737;SDS011;33502;47.182;27.506;2022-09-16T06:11:09;13.18;;;7.50;;
47737;SDS011;33502;47.182;27.506;2022-09-16T06:13:36;4.90;;;4.40;;
47737;SDS011;33502;47.182;27.506;2022-09-16T06:16:04;4.75;;;3.53;;
47737;SDS011;33502;47.182;27.506;2022-09-16T06:18:31;2.92;;;2.63;;
47737;SDS011;33502;47.182;27.506;2022-09-16T06:21:01;4.35;;;2.47;;
47737;SDS011;33502;47.182;27.506;2022-09-16T06:23:29;5.65;;;2.65;;
47737;SDS011;33502;47.182;27.506;2022-09-16T06:26:01;4.30;;;3.10;;
47737;SDS011;33502;47.182;27.506;2022-09-16T06:31:03;7.00;;;2.92;;
47737;SDS011;33502;47.182;27.506;2022-09-16T06:33:32;4.10;;;2.75;;
47737;SDS011;33502;47.182;27.506;2022-09-16T06:36:05;5.78;;;3.28;;
47737;SDS011;33502;47.182;27.506;2022-09-16T06:38:32;7.88;;;3.63;;
47737;SDS011;33502;47.182;27.506;2022-09-16T06:40:58;4.50;;;3.78;;
47737;SDS011;33502;47.182;27.506;2022-09-16T06:43:25;5.53;;;3.72;;
47737;SDS011;33502;47.182;27.506;2022-09-16T06:45:55;3.25;;;2.95;;
47737;SDS011;33502;47.182;27.506;2022-09-16T06:48:25;8.80;;;3.40;;
47737;SDS011;33502;47.182;27.506;2022-09-16T06:50:58;4.13;;;3.65;;
47737;SDS011;33502;47.182;27.506;2022-09-16T06:53:29;4.32;;;3.50;;
47737;SDS011;33502;47.182;27.506;2022-09-16T06:55:58;5.15;;;3.55;;
47737;SDS011;33502;47.182;27.506;2022-09-16T06:58:26;6.87;;;3.47;;
47737;SDS011;33502;47.182;27.506;2022-09-16T07:00:54;3.88;;;3.47;;
47737;SDS011;33502;47.182;27.506;2022-09-16T07:03:20;5.30;;;3.75;;
47737;SDS011;33502;47.182;27.506;2022-09-16T07:05:59;4.80;;;3.60;;
47737;SDS011;33502;47.182;27.506;2022-09-16T07:08:28;7.05;;;3.45;;
47737;SDS011;33502;47.182;27.506;2022-09-16T07:11:04;5.57;;;2.90;;
47737;SDS011;33502;47.182;27.506;2022-09-16T07:13:33;6.28;;;3.25;;
47737;SDS011;33502;47.182;27.506;2022-09-16T07:15:59;5.60;;;2.63;;
47737;SDS011;33502;47.182;27.506;2022-09-16T07:18:27;3.85;;;2.55;;
47737;SDS011;33502;47.182;27.506;2022-09-16T07:20:59;3.65;;;2.72;;
47737;SDS011;33502;47.182;27.506;2022-09-16T07:23:29;4.53;;;2.65;;
47737;SDS011;33502;47.182;27.506;2022-09-16T07:26:03;2.63;;;2.25;;
47737;SDS011;33502;47.182;27.506;2022-09-16T07:28:30;1.70;;;1.60;;
47737;SDS011;33502;47.182;27.506;2022-09-16T07:30:59;2.30;;;1.90;;
47737;SDS011;33502;47.182;27.506;2022-09-16T07:33:26;2.63;;;1.48;;
47737;SDS011;33502;47.182;27.506;2022-09-16T07:35:52;4.60;;;1.90;;
47737;SDS011;33502;47.182;27.506;2022-09-16T07:38:21;2.58;;;1.70;;
47737;SDS011;33502;47.182;27.506;2022-09-16T07:40:47;3.95;;;1.98;;
47737;SDS011;33502;47.182;27.506;2022-09-16T07:43:13;5.72;;;2.10;;
47737;SDS011;33502;47.182;27.506;2022-09-16T07:45:38;3.10;;;1.80;;
47737;SDS011;33502;47.182;27.506;2022-09-16T07:48:04;2.83;;;2.50;;
47737;SDS011;33502;47.182;27.506;2022-09-16T07:50:30;1.85;;;1.70;;
47737;SDS011;33502;47.182;27.506;2022-09-16T07:52:56;1.58;;;1.48;;
47737;SDS011;33502;47.182;27.506;2022-09-16T07:55:21;4.82;;;1.70;;
47737;SDS011;33502;47.182;27.506;2022-09-16T07:57:47;5.50;;;1.65;;
47737;SDS011;33502;47.182;27.506;2022-09-16T08:00:13;1.58;;;1.45;;
47737;SDS011;33502;47.182;27.506;2022-09-16T08:02:40;3.35;;;2.00;;
47737;SDS011;33502;47.182;27.506;2022-09-16T08:05:06;1.50;;;1.40;;
47737;SDS011;33502;47.182;27.506;2022-09-16T08:07:34;5.43;;;1.90;;
47737;SDS011;33502;47.182;27.506;2022-09-16T08:10:00;2.67;;;2.22;;
47737;SDS011;33502;47.182;27.506;2022-09-16T08:12:26;2.88;;;2.28;;
47737;SDS011;33502;47.182;27.506;2022-09-16T08:14:57;3.05;;;2.30;;
47737;SDS011;33502;47.182;27.506;2022-09-16T08:17:24;4.43;;;2.50;;
47737;SDS011;33502;47.182;27.506;2022-09-16T08:19:50;2.03;;;1.83;;
47737;SDS011;33502;47.182;27.506;2022-09-16T08:22:16;2.40;;;1.80;;
47737;SDS011;33502;47.182;27.506;2022-09-16T08:24:42;2.22;;;1.90;;
47737;SDS011;33502;47.182;27.506;2022-09-16T08:27:08;4.45;;;1.85;;
47737;SDS011;33502;47.182;27.506;2022-09-16T08:29:34;2.13;;;2.03;;
47737;SDS011;33502;47.182;27.506;2022-09-16T08:31:59;3.40;;;2.60;;
47737;SDS011;33502;47.182;27.506;2022-09-16T08:34:25;7.40;;;2.50;;
47737;SDS011;33502;47.182;27.506;2022-09-16T08:36:51;5.28;;;2.80;;
47737;SDS011;33502;47.182;27.506;2022-09-16T08:39:17;3.67;;;2.53;;
47737;SDS011;33502;47.182;27.506;2022-09-16T08:44:30;2.60;;;2.40;;
47737;SDS011;33502;47.182;27.506;2022-09-16T08:47:01;3.28;;;2.88;;
47737;SDS011;33502;47.182;27.506;2022-09-16T08:49:37;3.38;;;3.10;;
47737;SDS011;33502;47.182;27.506;2022-09-16T08:52:10;3.78;;;2.60;;
47737;SDS011;33502;47.182;27.506;2022-09-16T08:54:38;5.78;;;3.47;;
47737;SDS011;33502;47.182;27.506;2022-09-16T08:57:10;4.45;;;3.15;;
47737;SDS011;33502;47.182;27.506;2022-09-16T08:59:56;4.15;;;2.50;;
47737;SDS011;33502;47.182;27.506;2022-09-16T09:05:16;5.05;;;2.35;;
47737;SDS011;33502;47.182;27.506;2022-09-16T09:07:52;2.17;;;1.95;;
47737;SDS011;33502;47.182;27.506;2022-09-16T09:10:38;1.88;;;1.77;;
47737;SDS011;33502;47.182;27.506;2022-09-16T09:15:57;1.92;;;1.60;;
47737;SDS011;33502;47.182;27.506;2022-09-16T09:19:35;3.00;;;2.10;;
47737;SDS011;33502;47.182;27.506;2022-09-16T09:21:53;1.83;;;1.73;;
47737;SDS011;33502;47.182;27.506;2022-09-16T09:27:02;2.85;;;1.70;;
47737;SDS011;33502;47.182;27.506;2022-09-16T09:35:37;2.72;;;1.88;;
47737;SDS011;33502;47.182;27.506;2022-09-16T09:40:56;3.15;;;2.17;;
47737;SDS011;33502;47.182;27.506;2022-09-16T09:43:35;1.50;;;1.40;;
47737;SDS011;33502;47.182;27.506;2022-09-16T09:49:04;1.63;;;1.52;;
47737;SDS011;33502;47.182;27.506;2022-09-16T09:51:35;2.53;;;1.70;;
47737;SDS011;33502;47.182;27.506;2022-09-16T09:54:48;3.80;;;1.80;;
47737;SDS011;33502;47.182;27.506;2022-09-16T09:57:15;2.13;;;1.85;;
47737;SDS011;33502;47.182;27.506;2022-09-16T09:59:59;3.70;;;1.48;;
47737;SDS011;33502;47.182;27.506;2022-09-16T10:02:40;2.13;;;1.92;;
47737;SDS011;33502;47.182;27.506;2022-09-16T10:05:26;3.33;;;1.65;;
47737;SDS011;33502;47.182;27.506;2022-09-16T10:08:01;1.85;;;1.40;;
47737;SDS011;33502;47.182;27.506;2022-09-16T10:10:30;1.73;;;1.50;;
47737;SDS011;33502;47.182;27.506;2022-09-16T10:13:05;2.90;;;1.60;;
47737;SDS011;33502;47.182;27.506;2022-09-16T10:15:33;2.25;;;1.58;;
47737;SDS011;33502;47.182;27.506;2022-09-16T10:17:59;2.63;;;1.73;;
47737;SDS011;33502;47.182;27.506;2022-09-16T10:20:30;6.18;;;1.60;;
47737;SDS011;33502;47.182;27.506;2022-09-16T10:23:13;2.45;;;1.40;;
47737;SDS011;33502;47.182;27.506;2022-09-16T10:25:41;2.22;;;1.55;;
47737;SDS011;33502;47.182;27.506;2022-09-16T10:30:49;1.80;;;1.45;;
47737;SDS011;33502;47.182;27.506;2022-09-16T10:33:23;1.70;;;1.60;;
47737;SDS011;33502;47.182;27.506;2022-09-16T10:36:35;1.75;;;1.40;;
47737;SDS011;33502;47.182;27.506;2022-09-16T10:38:51;2.90;;;1.77;;
47737;SDS011;33502;47.182;27.506;2022-09-16T10:41:23;2.47;;;1.50;;
47737;SDS011;33502;47.182;27.506;2022-09-16T10:43:52;1.90;;;1.60;;
47737;SDS011;33502;47.182;27.506;2022-09-16T10:46:21;3.35;;;1.88;;
47737;SDS011;33502;47.182;27.506;2022-09-16T10:48:47;2.95;;;2.00;;
47737;SDS011;33502;47.182;27.506;2022-09-16T10:51:20;2.55;;;1.70;;
47737;SDS011;33502;47.182;27.506;2022-09-16T10:53:52;3.67;;;1.90;;
47737;SDS011;33502;47.182;27.506;2022-09-16T10:56:31;2.08;;;1.88;;
47737;SDS011;33502;47.182;27.506;2022-09-16T10:59:07;3.50;;;2.13;;
47737;SDS011;33502;47.182;27.506;2022-09-16T11:18:24;2.00;;;1.50;;
47737;SDS011;33502;47.182;27.506;2022-09-16T11:23:42;3.80;;;1.98;;
47737;SDS011;33502;47.182;27.506;2022-09-16T11:26:34;1.60;;;1.50;;
47737;SDS011;33502;47.182;27.506;2022-09-16T11:37:40;2.17;;;1.60;;
47737;SDS011;33502;47.182;27.506;2022-09-16T11:46:22;2.08;;;1.63;;
47737;SDS011;33502;47.182;27.506;2022-09-16T11:49:00;2.22;;;1.90;;
47737;SDS011;33502;47.182;27.506;2022-09-16T11:56:49;2.78;;;1.85;;
47737;SDS011;33502;47.182;27.506;2022-09-16T12:01:55;1.75;;;1.50;;
47737;SDS011;33502;47.182;27.506;2022-09-16T12:04:31;2.75;;;1.48;;
47737;SDS011;33502;47.182;27.506;2022-09-16T12:09:40;1.52;;;1.42;;
47737;SDS011;33502;47.182;27.506;2022-09-16T12:12:19;2.13;;;1.30;;
47737;SDS011;33502;47.182;27.506;2022-09-16T12:15:33;2.30;;;1.85;;
47737;SDS011;33502;47.182;27.506;2022-09-16T12:17:47;2.15;;;1.90;;
47737;SDS011;33502;47.182;27.506;2022-09-16T12:20:25;1.60;;;1.50;;
47737;SDS011;33502;47.182;27.506;2022-09-16T12:26:05;2.58;;;1.50;;
47737;SDS011;33502;47.182;27.506;2022-09-16T12:33:46;6.40;;;1.90;;
47737;SDS011;33502;47.182;27.506;2022-09-16T12:36:20;1.60;;;1.25;;
47737;SDS011;33502;47.182;27.506;2022-09-16T12:38:50;1.58;;;1.38;;
47737;SDS011;33502;47.182;27.506;2022-09-16T12:55:38;2.40;;;1.73;;
47737;SDS011;33502;47.182;27.506;2022-09-16T13:00:50;2.90;;;1.75;;
47737;SDS011;33502;47.182;27.506;2022-09-16T13:03:23;1.60;;;1.40;;
47737;SDS011;33502;47.182;27.506;2022-09-16T13:05:52;1.67;;;1.40;;
47737;SDS011;33502;47.182;27.506;2022-09-16T13:08:22;1.73;;;1.50;;
47737;SDS011;33502;47.182;27.506;2022-09-16T13:11:00;3.25;;;2.30;;
47737;SDS011;33502;47.182;27.506;2022-09-16T13:13:33;2.85;;;1.90;;
47737;SDS011;33502;47.182;27.506;2022-09-16T13:16:03;2.38;;;1.67;;
47737;SDS011;33502;47.182;27.506;2022-09-16T13:18:38;4.00;;;2.00;;
47737;SDS011;33502;47.182;27.506;2022-09-16T13:24:38;2.60;;;1.75;;
47737;SDS011;33502;47.182;27.506;2022-09-16T13:26:47;2.33;;;1.80;;
47737;SDS011;33502;47.182;27.506;2022-09-16T13:29:23;3.92;;;1.88;;
47737;SDS011;33502;47.182;27.506;2022-09-16T13:32:23;1.80;;;1.60;;
47737;SDS011;33502;47.182;27.506;2022-09-16T13:37:47;1.70;;;1.60;;
47737;SDS011;33502;47.182;27.506;2022-09-16T13:42:48;1.45;;;1.35;;
47737;SDS011;33502;47.182;27.506;2022-09-16T13:48:11;4.50;;;2.13;;
47737;SDS011;33502;47.182;27.506;2022-09-16T13:50:43;4.43;;;2.03;;
47737;SDS011;33502;47.182;27.506;2022-09-16T13:55:48;2.15;;;1.77;;
47737;SDS011;33502;47.182;27.506;2022-09-16T13:58:18;4.18;;;2.08;;
47737;SDS011;33502;47.182;27.506;2022-09-16T14:01:12;2.17;;;1.92;;
47737;SDS011;33502;47.182;27.506;2022-09-16T14:14:37;6.20;;;2.38;;
47737;SDS011;33502;47.182;27.506;2022-09-16T14:17:11;4.15;;;2.00;;
47737;SDS011;33502;47.182;27.506;2022-09-16T14:19:41;3.33;;;1.90;;
47737;SDS011;33502;47.182;27.506;2022-09-16T14:22:16;6.70;;;2.05;;
47737;SDS011;33502;47.182;27.506;2022-09-16T14:24:44;7.97;;;2.30;;
47737;SDS011;33502;47.182;27.506;2022-09-16T14:29:56;4.70;;;1.90;;
47737;SDS011;33502;47.182;27.506;2022-09-16T14:32:24;5.00;;;1.90;;
47737;SDS011;33502;47.182;27.506;2022-09-16T14:34:53;2.53;;;2.10;;
47737;SDS011;33502;47.182;27.506;2022-09-16T14:37:21;4.53;;;2.03;;
47737;SDS011;33502;47.182;27.506;2022-09-16T14:39:50;2.97;;;1.77;;
47737;SDS011;33502;47.182;27.506;2022-09-16T14:42:18;5.25;;;2.30;;
47737;SDS011;33502;47.182;27.506;2022-09-16T14:44:47;2.25;;;2.05;;
47737;SDS011;33502;47.182;27.506;2022-09-16T14:47:21;2.03;;;1.80;;
47737;SDS011;33502;47.182;27.506;2022-09-16T14:50:00;4.68;;;2.00;;
47737;SDS011;33502;47.182;27.506;2022-09-16T14:52:30;3.22;;;2.25;;
47737;SDS011;33502;47.182;27.506;2022-09-16T14:54:57;2.65;;;2.05;;
47737;SDS011;33502;47.182;27.506;2022-09-16T14:57:26;3.15;;;2.33;;
47737;SDS011;33502;47.182;27.506;2022-09-16T14:59:55;4.10;;;2.10;;
47737;SDS011;33502;47.182;27.506;2022-09-16T15:02:30;2.60;;;1.98;;
47737;SDS011;33502;47.182;27.506;2022-09-16T15:05:14;2.15;;;1.95;;
47737;SDS011;33502;47.182;27.506;2022-09-16T15:07:40;5.03;;;2.53;;
47737;SDS011;33502;47.182;27.506;2022-09-16T15:10:16;3.13;;;2.20;;
47737;SDS011;33502;47.182;27.506;2022-09-16T15:15:23;6.07;;;2.20;;
47737;SDS011;33502;47.182;27.506;2022-09-16T15:17:57;12.57;;;5.90;;
47737;SDS011;33502;47.182;27.506;2022-09-16T15:20:39;7.63;;;5.43;;
47737;SDS011;33502;47.182;27.506;2022-09-16T15:23:13;7.35;;;4.15;;
47737;SDS011;33502;47.182;27.506;2022-09-16T15:26:19;4.55;;;2.88;;
47737;SDS011;33502;47.182;27.506;2022-09-16T15:29:02;5.80;;;3.00;;
47737;SDS011;33502;47.182;27.506;2022-09-16T15:31:30;5.45;;;2.88;;
47737;SDS011;33502;47.182;27.506;2022-09-16T15:34:18;3.90;;;3.17;;
47737;SDS011;33502;47.182;27.506;2022-09-16T15:36:56;6.25;;;2.97;;
47737;SDS011;33502;47.182;27.506;2022-09-16T15:42:02;8.23;;;3.92;;
47737;SDS011;33502;47.182;27.506;2022-09-16T15:44:37;10.27;;;3.47;;
47737;SDS011;33502;47.182;27.506;2022-09-16T15:47:33;12.68;;;4.05;;
47737;SDS011;33502;47.182;27.506;2022-09-16T15:50:04;9.18;;;3.80;;
47737;SDS011;33502;47.182;27.506;2022-09-16T15:55:25;31.02;;;5.97;;
47737;SDS011;33502;47.182;27.506;2022-09-16T16:03:30;10.82;;;5.43;;
47737;SDS011;33502;47.182;27.506;2022-09-16T16:06:12;8.65;;;5.18;;
47737;SDS011;33502;47.182;27.506;2022-09-16T16:08:45;11.48;;;5.18;;
47737;SDS011;33502;47.182;27.506;2022-09-16T16:11:17;6.55;;;4.95;;
47737;SDS011;33502;47.182;27.506;2022-09-16T16:13:44;9.07;;;5.22;;
47737;SDS011;33502;47.182;27.506;2022-09-16T16:16:11;8.75;;;4.90;;
47737;SDS011;33502;47.182;27.506;2022-09-16T16:18:39;6.47;;;4.57;;
47737;SDS011;33502;47.182;27.506;2022-09-16T16:21:07;9.68;;;5.15;;
47737;SDS011;33502;47.182;27.506;2022-09-16T16:23:35;8.05;;;5.88;;
47737;SDS011;33502;47.182;27.506;2022-09-16T16:26:06;11.23;;;7.32;;
47737;SDS011;33502;47.182;27.506;2022-09-16T16:28:33;12.88;;;7.20;;
47737;SDS011;33502;47.182;27.506;2022-09-16T16:31:07;11.50;;;7.43;;
47737;SDS011;33502;47.182;27.506;2022-09-16T16:33:40;8.18;;;6.10;;
47737;SDS011;33502;47.182;27.506;2022-09-16T16:36:08;13.50;;;6.22;;
47737;SDS011;33502;47.182;27.506;2022-09-16T16:38:35;8.65;;;5.22;;
47737;SDS011;33502;47.182;27.506;2022-09-16T16:41:01;14.82;;;6.03;;
47737;SDS011;33502;47.182;27.506;2022-09-16T16:43:27;11.77;;;6.40;;
47737;SDS011;33502;47.182;27.506;2022-09-16T16:45:53;11.05;;;7.22;;
47737;SDS011;33502;47.182;27.506;2022-09-16T16:48:23;12.52;;;7.63;;
47737;SDS011;33502;47.182;27.506;2022-09-16T16:53:22;14.70;;;6.93;;
47737;SDS011;33502;47.182;27.506;2022-09-16T16:55:48;9.93;;;7.32;;
47737;SDS011;33502;47.182;27.506;2022-09-16T16:58:14;12.75;;;8.80;;
47737;SDS011;33502;47.182;27.506;2022-09-16T17:00:40;13.85;;;8.90;;
47737;SDS011;33502;47.182;27.506;2022-09-16T17:03:06;14.60;;;8.77;;
47737;SDS011;33502;47.182;27.506;2022-09-16T17:05:32;17.70;;;9.30;;
47737;SDS011;33502;47.182;27.506;2022-09-16T17:07:58;14.23;;;8.73;;
47737;SDS011;33502;47.182;27.506;2022-09-16T17:10:23;12.20;;;8.20;;
47737;SDS011;33502;47.182;27.506;2022-09-16T17:12:49;13.73;;;9.68;;
47737;SDS011;33502;47.182;27.506;2022-09-16T17:15:15;18.15;;;10.70;;
47737;SDS011;33502;47.182;27.506;2022-09-16T17:17:41;17.30;;;10.15;;
47737;SDS011;33502;47.182;27.506;2022-09-16T17:20:08;24.20;;;14.70;;
47737;SDS011;33502;47.182;27.506;2022-09-16T17:22:34;22.33;;;14.35;;
47737;SDS011;33502;47.182;27.506;2022-09-16T17:25:00;24.02;;;15.93;;
47737;SDS011;33502;47.182;27.506;2022-09-16T17:27:25;23.02;;;13.98;;
47737;SDS011;33502;47.182;27.506;2022-09-16T17:29:52;17.38;;;11.32;;
47737;SDS011;33502;47.182;27.506;2022-09-16T17:32:18;17.60;;;10.43;;
47737;SDS011;33502;47.182;27.506;2022-09-16T17:34:43;12.25;;;9.48;;
47737;SDS011;33502;47.182;27.506;2022-09-16T17:37:09;12.48;;;8.25;;
47737;SDS011;33502;47.182;27.506;2022-09-16T17:39:35;11.82;;;8.98;;
47737;SDS011;33502;47.182;27.506;2022-09-16T17:42:02;12.63;;;8.25;;
47737;SDS011;33502;47.182;27.506;2022-09-16T17:44:28;13.27;;;8.38;;
47737;SDS011;33502;47.182;27.506;2022-09-16T17:46:54;9.52;;;7.82;;
47737;SDS011;33502;47.182;27.506;2022-09-16T17:49:20;12.32;;;8.52;;
47737;SDS011;33502;47.182;27.506;2022-09-16T17:51:47;14.85;;;10.40;;
47737;SDS011;33502;47.182;27.506;2022-09-16T17:54:14;12.88;;;9.50;;
47737;SDS011;33502;47.182;27.506;2022-09-16T17:56:40;13.02;;;9.38;;
47737;SDS011;33502;47.182;27.506;2022-09-16T17:59:09;14.88;;;9.23;;
47737;SDS011;33502;47.182;27.506;2022-09-16T18:01:36;11.80;;;7.85;;
47737;SDS011;33502;47.182;27.506;2022-09-16T18:04:01;8.93;;;7.15;;
47737;SDS011;33502;47.182;27.506;2022-09-16T18:06:28;9.77;;;6.95;;
47737;SDS011;33502;47.182;27.506;2022-09-16T18:08:59;10.90;;;6.50;;
47737;SDS011;33502;47.182;27.506;2022-09-16T18:11:26;7.70;;;6.05;;
47737;SDS011;33502;47.182;27.506;2022-09-16T18:13:55;8.48;;;6.18;;